This is the latest recevied weather packets stored in our database for station/object KM4KBD. If no packets are shown the sender has not sent any weather packets the latest 10 day(s).
| Time | Temp. | Humidity | Pressure | Rain* | Wind** | Luminosity | Snow |
|---|---|---|---|---|---|---|---|
| 1777671995 | 16.11° C | 47% | 1019.7 hPa | 0 mm | - | 193 W/m² | - |
| 1777671691 | 16.67° C | 50% | 1019.9 hPa | 0 mm | - | 337 W/m² | - |
| 1777671388 | 16.11° C | 51% | 1019.7 hPa | 0 mm | - | 356 W/m² | - |
| 1777671084 | 16.11° C | 50% | 1019.9 hPa | 0 mm | - | 373 W/m² | - |
| 1777670781 | 15° C | 53% | 1020.1 hPa | 0 mm | - | 444 W/m² | - |
| 1777670477 | 15° C | 51% | 1019.7 hPa | 0 mm | - | 141 W/m² | - |
| 1777670174 | 15.56° C | 52% | 1019.9 hPa | 0 mm | - | 437 W/m² | - |
| 1777669872 | 15.56° C | 52% | 1019.5 hPa | 0 mm | - | 215 W/m² | - |
| 1777669568 | 15.56° C | 48% | 1019.9 hPa | 0 mm | - | 496 W/m² | - |
| 1777668961 | 15° C | 52% | 1019.8 hPa | 0 mm | - | 193 W/m² | - |
| 1777668659 | 15° C | 52% | 1019.8 hPa | 0 mm | - | 457 W/m² | - |
| 1777668355 | 15.56° C | 52% | 1019.6 hPa | 0 mm | - | 321 W/m² | - |
| 1777667748 | 15.56° C | 48% | 1019.5 hPa | 0 mm | - | 143 W/m² | - |
| 1777667446 | 16.67° C | 50% | 1019.7 hPa | 0 mm | - | 542 W/m² | - |
| 1777667143 | 16.11° C | 51% | 1019.7 hPa | 0 mm | - | 583 W/m² | - |
| 1777666839 | 15° C | 53% | 1020 hPa | 0 mm | - | 197 W/m² | - |
| 1777666537 | 15° C | 53% | 1019.8 hPa | 0 mm | - | 181 W/m² | - |
| 1777666233 | 15.56° C | 55% | 1020 hPa | 0 mm | - | 139 W/m² | - |
| 1777665627 | 15° C | 56% | 1020.2 hPa | 0 mm | - | 211 W/m² | - |
| 1777665325 | 15.56° C | 55% | 1019.9 hPa | 0 mm | - | 193 W/m² | - |
| 1777665020 | 16.11° C | 54% | 1019.9 hPa | 0 mm | - | 701 W/m² | - |
| 1777664412 | 15° C | 57% | 1020 hPa | 0 mm | - | 226 W/m² | - |
| 1777664110 | 16.11° C | 55% | 1020 hPa | 0 mm | - | 231 W/m² | - |
| 1777662901 | 15.56° C | 58% | 1020.2 hPa | 0 mm | - | 234 W/m² | - |
| 1777660468 | 13.33° C | 67% | 1020.5 hPa | 0 mm | - | 231 W/m² | - |
* Rain latest hour (hover to see other rain measurements)
** Current wind speed in m/s (hover to see current wind gust speed)